Terminal Aerodrome Forecast
Issued by NWS

Home | Current Version | Previous Version | Text Only | Print | Product List | Glossary On
Versions: 1 2 3 4 5 6 7 8 9 10 11 12 13 14 15 16 17 18 19
000
FTUS41 KAKQ 051140
TAFPHF
TAF
KPHF 051140Z 0512/0612 04003KT P6SM SCT050 BKN100
     FM051500 07007KT P6SM VCSH BKN050 BKN120
     FM060000 13004KT 6SM -SHRA BR OVC050
     FM060900 20004KT P6SM BKN100=

USA.gov is the U.S. government's official web portal to all federal, state and local government web resources and services.